NCAR-RAP Real-Time Weather Data

Output produced by METARs form (12 May 2021  11:54 UTC)
found at http://weather.rap.ucar.edu/surface/
 
KCOS 121054Z 18009KT 2SM BR BKN004 OVC011 03/02 A3030 RMK AO2 SFC VIS 5 DZE0958 SLP273 P0000 T00280017
KCOS 121050Z 17010KT 2SM R17L/4500VP6000FT BR BKN002 OVC011 03/02 A3030 RMK AO2 DZE0958 P0000
KCOS 121016Z 17010KT 1/2SM R17L/P6000FT FG OVC002 03/02 A3030 RMK AO2 TWR VIS 1 DZE0958 P0000 T00280017
KCOS 121003Z 17012KT 1SM R17L/P6000FT BR OVC002 03/02 A3030 RMK AO2 SFC VIS 2 1/2 VIS 1 1/4V4 DZE0958 P0000 T00280017
KCOS 120954Z 17012KT 1/4SM R17L/6000VP6000FT -DZ FG OVC002 03/02 A3030 RMK AO2 SLP277 VIS 1/4V1 DZB0855 P0000 T00280017
KCOS 120913Z 17012KT 1/4SM R17L/2000VP6000FT -DZ FG VV002 03/02 A3030 RMK AO2 TWR VIS 1/2 DZB0855 VIS 1/4V1 P0000 T00280017
KCOS 120854Z 16010KT 1/2SM R17L/P6000FT FG OVC003 03/02 A3030 RMK AO2 DZE41 SLP277 P0000 60000 T00280017 58006
KCOS 120754Z 17011KT 3/4SM R17L/5500VP6000FT -DZ BR OVC003 03/02 A3032 RMK AO2 SFC VIS 2 SLP281 DZB39 P0000 T00280017
KCOS 120654Z 16011KT 1/2SM R17L/2400VP6000FT FG OVC003 03/02 A3032 RMK AO2 SLP280 DZB07E42 P0000 T00280017 400500006
KCOS 120554Z 16011KT 1/2SM R17L/4500VP6000FT BR OVC002 03/02 A3032 RMK AO2 SFC VIS 3/4 RAB33E44 SLP284 P0000 60003 T00280022 10039 20028 57002
KCOS 120519Z 15009KT 1/4SM R17L/3500VP6000FT FG OVC003 03/02 A3032 RMK AO2 TWR VIS 1/2 T00280017
KCOS 120512Z 14009KT 1/2SM R17L/3500VP6000FT FG OVC003 03/02 A3033 RMK AO2 T00280017
KCOS 120504Z 15010KT 1/2SM R17L/P6000FT BR SCT004 BKN006 OVC014 03/02 A3033 RMK AO2 SFC VIS 1 1/2 T00280017
KCOS 120454Z 16009KT 7SM SCT004 BKN006 OVC014 03/02 A3033 RMK AO2 SLP286 T00280017
KCOS 120354Z 17008KT 10SM SCT004 BKN006 OVC011 03/02 A3033 RMK AO2 RAE44 SLP286 P0001 T00330022
KCOS 120254Z 18009KT 4SM -RA BR BKN009 OVC019 03/02 A3032 RMK AO2 RAB32 SLP286 P0002 60002 T00330017 51012
KCOS 120250Z 19008KT 3SM -RA BR BKN009 OVC019 03/01 A3032 RMK AO2 RAB32 P0001
KCOS 120154Z 13003KT 10SM FEW006 FEW009 BKN028 04/02 A3029 RMK AO2 RAE16 SLP273 P0000 T00390017
KCOS 120134Z 17003KT 9SM SCT006 SCT018 BKN027 04/02 A3029 RMK AO2 RAE16 P0000 T00390017
KCOS 120054Z 16005KT 8SM -RA FEW006 BKN009 BKN027 03/02 A3028 RMK AO2 RAB46 SLP270 P0000 T00330017
KCOS 112354Z 16008KT 10SM FEW006 BKN009 BKN020 04/02 A3026 RMK AO2 RAE2259 SLP264 P0000 60010 T00390017 10050 20022 51015
KCOS 112254Z 00000KT 9SM -RA BKN008 BKN012 OVC016 03/01 A3025 RMK AO2 RAE07B24SNE24 SLP262 P0003 T00330011
KCOS 112222Z 10003KT 3SM -SN BR BKN005 OVC012 03/01 A3024 RMK AO2 SFC VIS 4 RAE07 P0003 T00280011
KCOS 112208Z 09004KT 1 1/4SM R17L/5000VP6000FT -SN BR BKN005 OVC012 02/01 A3023 RMK AO2 TWR VIS 1 1/2 RAE07 P0000 T00220006